Annapolis, MD

2:19 AM EDT on August 22, 2014 (GMT -0400)
Indian Hills/Glen Eden | Change Station
CLOSE
Current Station
Personal Weather Station
Location: Arnold, MD
Elevation: 66 ft
Nearby Weather Stations

Elev 66 ft 39.02 °N, 76.49 °W | Updated 4 seconds ago

Scattered Clouds
Scattered Clouds
70.9 °F
Feels Like 70.9 °F
N
0.0
Wind Variable Wind from SSE
Gusts 0.0 mph

Today
High -- | Low -- °F
--% Chance of Precip.
Yesterday
High -- | Low -- °F
Precip. -- in
6:25 AM 7:51 PM
Waning Crescent, 10% visible
Pressure 29.96 in
Visibility 7.0 miles
Clouds Scattered Clouds 8000 ft
Dew Point 70 °F
Humidity 96%
Rainfall 0.00 in
Snow Depth Not available.
UV 0 out of 12
Pollen 9.10 out of 12
Air Quality Not available.
Flu Activity Not available.
METAR KNAK 220554Z AUTO 00000KT 7SM SCT080 24/22 A2996 RMK AO2 SLP146 60000 T02390222 10272 20233 58008

More Conditions Fewer Conditions

Pressure 29.96 in
Visibility 7.0 miles
Clouds Scattered Clouds 8000 ft
Dew Point 70 °F
Humidity 96%
Rainfall 0.00 in
Snow Depth Not available.
UV 0 out of 12
Pollen 9.10 out of 12
Air Quality Not available.
Flu Activity Not available.
METAR KNAK 220554Z AUTO 00000KT 7SM SCT080 24/22 A2996 RMK AO2 SLP146 60000 T02390222 10272 20233 58008

More Conditions Fewer Conditions

10-Day Weather Forecast

Almanac

Astronomy

Aug. 22, 2014 Rise Set
Actual Time 6:25 AM EDT 7:51 PM EDT
Civil Twilight 5:57 AM EDT 8:19 PM EDT
Nautical Twilight 5:24 AM EDT 8:52 PM EDT
Astronomical Twilight 4:48 AM EDT 9:28 PM EDT
Moon 3:47 AM EDT 5:57 PM EDT
Length of Visible Light 14h 21m
Length of Day
13h 25m
Tomorrow will be 2m 20s shorter.
Waning Crescent, 10% of the Moon is Illuminated
Today
Waning Crescent
Aug 25
New
Sep 2
First Quarter
Sep 8
Full
Sep 15
Last Quarter

Today's Extremes

State Highs State Lows

Community

WunderPhotos

Upload Photos

1,746,131 photos uploaded!

Nearby

Snow Depth

Station Depth Elevation
No new snow has been reported.

Earthquake Activity

City Distance Mag. Time & Date
No recent earthquake activity has been reported nearby.
Minimum magnitude displayed is 2.5.

Coastal Water Temperatures

Place Temperature
Cambridge, MD 79.0 °F
Tolchester Beach, MD 80.1 °F
Baltimore, MD 81.0 °F

Nearby Weather Stations